sensor_id;sensor_type;location;lat;lon;timestamp;temperature;humidity
46117;DHT22;32591;48.102;11.772;2022-10-16T00:01:56;13.70;99.90
46117;DHT22;32591;48.102;11.772;2022-10-16T00:04:25;13.70;99.90
46117;DHT22;32591;48.102;11.772;2022-10-16T00:06:52;13.70;99.90
46117;DHT22;32591;48.102;11.772;2022-10-16T00:09:19;13.60;99.90
46117;DHT22;32591;48.102;11.772;2022-10-16T00:11:46;13.60;99.90
46117;DHT22;32591;48.102;11.772;2022-10-16T00:14:14;13.60;99.90
46117;DHT22;32591;48.102;11.772;2022-10-16T00:16:42;13.60;99.90
46117;DHT22;32591;48.102;11.772;2022-10-16T00:19:09;13.60;99.90
46117;DHT22;32591;48.102;11.772;2022-10-16T00:21:38;13.60;99.90
46117;DHT22;32591;48.102;11.772;2022-10-16T00:24:07;13.50;99.90
46117;DHT22;32591;48.102;11.772;2022-10-16T00:26:35;13.60;99.90
46117;DHT22;32591;48.102;11.772;2022-10-16T00:29:04;13.50;99.90
46117;DHT22;32591;48.102;11.772;2022-10-16T00:31:32;13.50;99.90
46117;DHT22;32591;48.102;11.772;2022-10-16T00:33:59;13.50;99.90
46117;DHT22;32591;48.102;11.772;2022-10-16T00:36:27;13.50;99.90
46117;DHT22;32591;48.102;11.772;2022-10-16T00:38:57;13.50;99.90
46117;DHT22;32591;48.102;11.772;2022-10-16T00:41:26;13.40;99.90
46117;DHT22;32591;48.102;11.772;2022-10-16T00:43:55;13.40;99.90
46117;DHT22;32591;48.102;11.772;2022-10-16T00:46:26;13.30;99.90
46117;DHT22;32591;48.102;11.772;2022-10-16T00:48:58;13.30;99.90
46117;DHT22;32591;48.102;11.772;2022-10-16T00:51:31;13.30;99.90
46117;DHT22;32591;48.102;11.772;2022-10-16T00:54:02;13.30;99.90
46117;DHT22;32591;48.102;11.772;2022-10-16T00:56:31;13.30;99.90
46117;DHT22;32591;48.102;11.772;2022-10-16T00:59:01;13.30;99.90
46117;DHT22;32591;48.102;11.772;2022-10-16T01:01:30;13.20;99.90
46117;DHT22;32591;48.102;11.772;2022-10-16T01:03:57;13.20;99.90
46117;DHT22;32591;48.102;11.772;2022-10-16T01:06:29;13.20;99.90
46117;DHT22;32591;48.102;11.772;2022-10-16T01:09:13;13.20;99.90
46117;DHT22;32591;48.102;11.772;2022-10-16T01:11:48;13.10;99.90
46117;DHT22;32591;48.102;11.772;2022-10-16T01:14:26;13.20;99.90
46117;DHT22;32591;48.102;11.772;2022-10-16T01:17:01;13.20;99.90
46117;DHT22;32591;48.102;11.772;2022-10-16T01:19:44;13.20;99.90
46117;DHT22;32591;48.102;11.772;2022-10-16T01:22:19;13.20;99.90
46117;DHT22;32591;48.102;11.772;2022-10-16T01:24:49;13.20;99.90
46117;DHT22;32591;48.102;11.772;2022-10-16T01:27:20;13.20;99.90
46117;DHT22;32591;48.102;11.772;2022-10-16T01:29:52;13.20;99.90
46117;DHT22;32591;48.102;11.772;2022-10-16T01:32:26;13.20;99.90
46117;DHT22;32591;48.102;11.772;2022-10-16T01:34:59;13.20;99.90
46117;DHT22;32591;48.102;11.772;2022-10-16T01:37:35;13.20;99.90
46117;DHT22;32591;48.102;11.772;2022-10-16T01:40:07;13.20;99.90
46117;DHT22;32591;48.102;11.772;2022-10-16T01:42:41;13.20;99.90
46117;DHT22;32591;48.102;11.772;2022-10-16T01:45:11;13.10;99.90
46117;DHT22;32591;48.102;11.772;2022-10-16T01:47:41;13.10;99.90
46117;DHT22;32591;48.102;11.772;2022-10-16T01:50:10;13.10;99.90
46117;DHT22;32591;48.102;11.772;2022-10-16T01:52:41;13.10;99.90
46117;DHT22;32591;48.102;11.772;2022-10-16T01:55:13;13.00;99.90
46117;DHT22;32591;48.102;11.772;2022-10-16T01:57:47;12.90;99.90
46117;DHT22;32591;48.102;11.772;2022-10-16T02:00:17;13.00;99.90
46117;DHT22;32591;48.102;11.772;2022-10-16T02:02:49;12.90;99.90
46117;DHT22;32591;48.102;11.772;2022-10-16T02:05:22;13.00;99.90
46117;DHT22;32591;48.102;11.772;2022-10-16T02:07:52;12.90;99.90
46117;DHT22;32591;48.102;11.772;2022-10-16T02:10:19;12.90;99.90
46117;DHT22;32591;48.102;11.772;2022-10-16T02:12:51;12.80;99.90
46117;DHT22;32591;48.102;11.772;2022-10-16T02:15:22;12.80;99.90
46117;DHT22;32591;48.102;11.772;2022-10-16T02:17:49;12.80;99.90
46117;DHT22;32591;48.102;11.772;2022-10-16T02:20:16;12.80;99.90
46117;DHT22;32591;48.102;11.772;2022-10-16T02:22:46;12.80;99.90
46117;DHT22;32591;48.102;11.772;2022-10-16T02:25:18;12.80;99.90
46117;DHT22;32591;48.102;11.772;2022-10-16T02:27:54;12.80;99.90
46117;DHT22;32591;48.102;11.772;2022-10-16T02:30:27;12.80;99.90
46117;DHT22;32591;48.102;11.772;2022-10-16T02:32:58;12.80;99.90
46117;DHT22;32591;48.102;11.772;2022-10-16T02:35:27;12.80;99.90
46117;DHT22;32591;48.102;11.772;2022-10-16T02:37:56;12.70;99.90
46117;DHT22;32591;48.102;11.772;2022-10-16T02:40:24;12.80;99.90
46117;DHT22;32591;48.102;11.772;2022-10-16T02:42:54;12.70;99.90
46117;DHT22;32591;48.102;11.772;2022-10-16T02:45:22;12.70;99.90
46117;DHT22;32591;48.102;11.772;2022-10-16T02:47:49;12.70;99.90
46117;DHT22;32591;48.102;11.772;2022-10-16T02:50:17;12.70;99.90
46117;DHT22;32591;48.102;11.772;2022-10-16T02:52:44;12.70;99.90
46117;DHT22;32591;48.102;11.772;2022-10-16T02:55:11;12.60;99.90
46117;DHT22;32591;48.102;11.772;2022-10-16T02:57:38;12.70;99.90
46117;DHT22;32591;48.102;11.772;2022-10-16T03:00:09;12.70;99.90
46117;DHT22;32591;48.102;11.772;2022-10-16T03:02:37;12.80;99.90
46117;DHT22;32591;48.102;11.772;2022-10-16T03:05:05;12.70;99.90
46117;DHT22;32591;48.102;11.772;2022-10-16T03:07:32;12.80;99.90
46117;DHT22;32591;48.102;11.772;2022-10-16T03:09:59;12.80;99.90
46117;DHT22;32591;48.102;11.772;2022-10-16T03:12:26;12.80;99.90
46117;DHT22;32591;48.102;11.772;2022-10-16T03:14:53;12.80;99.90
46117;DHT22;32591;48.102;11.772;2022-10-16T03:17:22;12.80;99.90
46117;DHT22;32591;48.102;11.772;2022-10-16T03:19:49;12.80;99.90
46117;DHT22;32591;48.102;11.772;2022-10-16T03:22:16;12.80;99.90
46117;DHT22;32591;48.102;11.772;2022-10-16T03:24:43;12.80;99.90
46117;DHT22;32591;48.102;11.772;2022-10-16T03:27:11;12.80;99.90
46117;DHT22;32591;48.102;11.772;2022-10-16T03:29:38;12.80;99.90
46117;DHT22;32591;48.102;11.772;2022-10-16T03:32:05;12.80;99.90
46117;DHT22;32591;48.102;11.772;2022-10-16T03:34:33;12.80;99.90
46117;DHT22;32591;48.102;11.772;2022-10-16T03:37:00;12.80;99.90
46117;DHT22;32591;48.102;11.772;2022-10-16T03:39:27;12.70;99.90
46117;DHT22;32591;48.102;11.772;2022-10-16T03:41:54;12.70;99.90
46117;DHT22;32591;48.102;11.772;2022-10-16T03:44:21;12.70;99.90
46117;DHT22;32591;48.102;11.772;2022-10-16T03:46:48;12.70;99.90
46117;DHT22;32591;48.102;11.772;2022-10-16T03:49:15;12.70;99.90
46117;DHT22;32591;48.102;11.772;2022-10-16T03:51:43;12.70;99.90
46117;DHT22;32591;48.102;11.772;2022-10-16T03:54:10;12.70;99.90
46117;DHT22;32591;48.102;11.772;2022-10-16T03:56:38;12.70;99.90
46117;DHT22;32591;48.102;11.772;2022-10-16T03:59:05;12.80;99.90
46117;DHT22;32591;48.102;11.772;2022-10-16T04:01:32;12.80;99.90
46117;DHT22;32591;48.102;11.772;2022-10-16T04:03:59;12.80;99.90
46117;DHT22;32591;48.102;11.772;2022-10-16T04:06:26;12.90;99.90
46117;DHT22;32591;48.102;11.772;2022-10-16T04:08:54;12.90;99.90
46117;DHT22;32591;48.102;11.772;2022-10-16T04:11:21;12.90;99.90
46117;DHT22;32591;48.102;11.772;2022-10-16T04:13:48;12.90;99.90
46117;DHT22;32591;48.102;11.772;2022-10-16T04:16:15;12.90;99.90
46117;DHT22;32591;48.102;11.772;2022-10-16T04:18:42;12.90;99.90
46117;DHT22;32591;48.102;11.772;2022-10-16T04:21:09;13.00;99.90
46117;DHT22;32591;48.102;11.772;2022-10-16T04:23:36;13.00;99.90
46117;DHT22;32591;48.102;11.772;2022-10-16T04:26:05;13.00;99.90
46117;DHT22;32591;48.102;11.772;2022-10-16T04:28:32;13.00;99.90
46117;DHT22;32591;48.102;11.772;2022-10-16T04:30:59;13.00;99.90
46117;DHT22;32591;48.102;11.772;2022-10-16T04:33:26;13.10;99.90
46117;DHT22;32591;48.102;11.772;2022-10-16T04:35:56;13.10;99.90
46117;DHT22;32591;48.102;11.772;2022-10-16T04:38:24;13.10;99.90
46117;DHT22;32591;48.102;11.772;2022-10-16T04:40:52;13.10;99.90
46117;DHT22;32591;48.102;11.772;2022-10-16T04:43:21;13.10;99.90
46117;DHT22;32591;48.102;11.772;2022-10-16T04:45:48;13.10;99.90
46117;DHT22;32591;48.102;11.772;2022-10-16T04:48:16;13.10;99.90
46117;DHT22;32591;48.102;11.772;2022-10-16T04:50:44;13.10;99.90
46117;DHT22;32591;48.102;11.772;2022-10-16T04:53:11;13.10;99.90
46117;DHT22;32591;48.102;11.772;2022-10-16T04:55:38;13.10;99.90
46117;DHT22;32591;48.102;11.772;2022-10-16T04:58:05;13.10;99.90
46117;DHT22;32591;48.102;11.772;2022-10-16T05:00:33;13.10;99.90
46117;DHT22;32591;48.102;11.772;2022-10-16T05:03:01;13.20;99.90
46117;DHT22;32591;48.102;11.772;2022-10-16T05:05:31;13.20;99.90
46117;DHT22;32591;48.102;11.772;2022-10-16T05:07:58;13.20;99.90
46117;DHT22;32591;48.102;11.772;2022-10-16T05:10:25;13.20;99.90
46117;DHT22;32591;48.102;11.772;2022-10-16T05:12:52;13.20;99.90
46117;DHT22;32591;48.102;11.772;2022-10-16T05:15:19;13.20;99.90
46117;DHT22;32591;48.102;11.772;2022-10-16T05:17:51;13.20;99.90
46117;DHT22;32591;48.102;11.772;2022-10-16T05:20:19;13.20;99.90
46117;DHT22;32591;48.102;11.772;2022-10-16T05:22:46;13.20;99.90
46117;DHT22;32591;48.102;11.772;2022-10-16T05:25:13;13.20;99.90
46117;DHT22;32591;48.102;11.772;2022-10-16T05:27:40;13.20;99.90
46117;DHT22;32591;48.102;11.772;2022-10-16T05:30:08;13.20;99.90
46117;DHT22;32591;48.102;11.772;2022-10-16T05:32:35;13.20;99.90
46117;DHT22;32591;48.102;11.772;2022-10-16T05:35:04;13.30;99.90
46117;DHT22;32591;48.102;11.772;2022-10-16T05:37:32;13.30;99.90
46117;DHT22;32591;48.102;11.772;2022-10-16T05:40:00;13.30;99.90
46117;DHT22;32591;48.102;11.772;2022-10-16T05:42:28;13.40;99.90
46117;DHT22;32591;48.102;11.772;2022-10-16T05:44:55;13.40;99.90
46117;DHT22;32591;48.102;11.772;2022-10-16T05:47:22;13.40;99.90
46117;DHT22;32591;48.102;11.772;2022-10-16T05:49:49;13.40;99.90
46117;DHT22;32591;48.102;11.772;2022-10-16T05:52:17;13.40;99.90
46117;DHT22;32591;48.102;11.772;2022-10-16T05:54:44;13.50;99.90
46117;DHT22;32591;48.102;11.772;2022-10-16T05:57:11;13.50;99.90
46117;DHT22;32591;48.102;11.772;2022-10-16T05:59:38;13.50;99.90
46117;DHT22;32591;48.102;11.772;2022-10-16T06:02:05;13.50;99.90
46117;DHT22;32591;48.102;11.772;2022-10-16T06:04:32;13.50;99.90
46117;DHT22;32591;48.102;11.772;2022-10-16T06:06:59;13.50;99.90
46117;DHT22;32591;48.102;11.772;2022-10-16T06:09:28;13.50;99.90
46117;DHT22;32591;48.102;11.772;2022-10-16T06:11:55;13.50;99.90
46117;DHT22;32591;48.102;11.772;2022-10-16T06:14:22;13.50;99.90
46117;DHT22;32591;48.102;11.772;2022-10-16T06:16:49;13.60;99.90
46117;DHT22;32591;48.102;11.772;2022-10-16T06:19:16;13.60;99.90
46117;DHT22;32591;48.102;11.772;2022-10-16T06:21:44;13.60;99.90
46117;DHT22;32591;48.102;11.772;2022-10-16T06:24:11;13.50;99.90
46117;DHT22;32591;48.102;11.772;2022-10-16T06:26:39;13.50;99.90
46117;DHT22;32591;48.102;11.772;2022-10-16T06:29:06;13.50;99.90
46117;DHT22;32591;48.102;11.772;2022-10-16T06:31:34;13.60;99.90
46117;DHT22;32591;48.102;11.772;2022-10-16T06:34:01;13.60;99.90
46117;DHT22;32591;48.102;11.772;2022-10-16T06:36:30;13.60;99.90
46117;DHT22;32591;48.102;11.772;2022-10-16T06:38:57;13.50;99.90
46117;DHT22;32591;48.102;11.772;2022-10-16T06:41:24;13.50;99.90
46117;DHT22;32591;48.102;11.772;2022-10-16T06:43:52;13.60;99.90
46117;DHT22;32591;48.102;11.772;2022-10-16T06:46:22;13.60;99.90
46117;DHT22;32591;48.102;11.772;2022-10-16T06:48:50;13.70;99.90
46117;DHT22;32591;48.102;11.772;2022-10-16T06:51:18;13.80;99.90
46117;DHT22;32591;48.102;11.772;2022-10-16T06:53:47;13.90;99.90
46117;DHT22;32591;48.102;11.772;2022-10-16T06:56:17;14.00;99.90
46117;DHT22;32591;48.102;11.772;2022-10-16T06:58:46;14.00;99.90
46117;DHT22;32591;48.102;11.772;2022-10-16T07:01:16;14.00;99.90
46117;DHT22;32591;48.102;11.772;2022-10-16T07:03:45;14.10;99.90
46117;DHT22;32591;48.102;11.772;2022-10-16T07:06:15;14.10;99.90
46117;DHT22;32591;48.102;11.772;2022-10-16T07:08:45;14.20;99.90
46117;DHT22;32591;48.102;11.772;2022-10-16T07:11:14;14.20;99.90
46117;DHT22;32591;48.102;11.772;2022-10-16T07:13:43;14.30;99.90
46117;DHT22;32591;48.102;11.772;2022-10-16T07:16:12;14.30;99.90
46117;DHT22;32591;48.102;11.772;2022-10-16T07:18:42;14.40;99.90
46117;DHT22;32591;48.102;11.772;2022-10-16T07:21:12;14.40;99.90
46117;DHT22;32591;48.102;11.772;2022-10-16T07:23:41;14.40;99.90
46117;DHT22;32591;48.102;11.772;2022-10-16T07:26:09;14.50;99.90
46117;DHT22;32591;48.102;11.772;2022-10-16T07:28:37;14.60;99.90
46117;DHT22;32591;48.102;11.772;2022-10-16T07:31:07;14.60;99.90
46117;DHT22;32591;48.102;11.772;2022-10-16T07:33:38;14.70;99.90
46117;DHT22;32591;48.102;11.772;2022-10-16T07:36:07;14.80;99.90
46117;DHT22;32591;48.102;11.772;2022-10-16T07:38:34;14.90;99.90
46117;DHT22;32591;48.102;11.772;2022-10-16T07:41:03;15.00;99.90
46117;DHT22;32591;48.102;11.772;2022-10-16T07:43:31;15.20;99.90
46117;DHT22;32591;48.102;11.772;2022-10-16T07:45:59;15.20;99.90
46117;DHT22;32591;48.102;11.772;2022-10-16T07:48:27;15.40;99.90
46117;DHT22;32591;48.102;11.772;2022-10-16T07:50:58;15.50;99.90
46117;DHT22;32591;48.102;11.772;2022-10-16T07:53:26;15.50;99.90
46117;DHT22;32591;48.102;11.772;2022-10-16T07:55:57;15.60;99.90
46117;DHT22;32591;48.102;11.772;2022-10-16T07:58:25;15.70;99.90
46117;DHT22;32591;48.102;11.772;2022-10-16T08:00:53;15.80;99.90
46117;DHT22;32591;48.102;11.772;2022-10-16T08:03:20;16.00;99.90
46117;DHT22;32591;48.102;11.772;2022-10-16T08:05:48;16.10;99.90
46117;DHT22;32591;48.102;11.772;2022-10-16T08:08:18;16.20;99.90
46117;DHT22;32591;48.102;11.772;2022-10-16T08:10:45;16.30;99.90
46117;DHT22;32591;48.102;11.772;2022-10-16T08:13:12;16.40;99.90
46117;DHT22;32591;48.102;11.772;2022-10-16T08:15:40;16.50;99.90
46117;DHT22;32591;48.102;11.772;2022-10-16T08:18:09;16.60;99.90
46117;DHT22;32591;48.102;11.772;2022-10-16T08:20:36;16.70;99.90
46117;DHT22;32591;48.102;11.772;2022-10-16T08:23:03;16.80;99.90
46117;DHT22;32591;48.102;11.772;2022-10-16T08:25:34;16.90;99.90
46117;DHT22;32591;48.102;11.772;2022-10-16T08:28:03;17.00;99.90
46117;DHT22;32591;48.102;11.772;2022-10-16T08:30:31;17.10;99.90
46117;DHT22;32591;48.102;11.772;2022-10-16T08:32:59;17.20;99.90
46117;DHT22;32591;48.102;11.772;2022-10-16T08:35:26;17.40;99.90
46117;DHT22;32591;48.102;11.772;2022-10-16T08:37:53;17.50;99.90
46117;DHT22;32591;48.102;11.772;2022-10-16T08:40:23;17.60;99.90
46117;DHT22;32591;48.102;11.772;2022-10-16T08:46:16;18.00;99.90
46117;DHT22;32591;48.102;11.772;2022-10-16T08:48:50;18.10;99.90
46117;DHT22;32591;48.102;11.772;2022-10-16T08:51:21;18.20;99.90
46117;DHT22;32591;48.102;11.772;2022-10-16T08:53:53;18.30;99.90
46117;DHT22;32591;48.102;11.772;2022-10-16T08:56:23;18.40;99.90
46117;DHT22;32591;48.102;11.772;2022-10-16T08:58:52;18.50;99.90
46117;DHT22;32591;48.102;11.772;2022-10-16T09:01:22;18.60;99.90
46117;DHT22;32591;48.102;11.772;2022-10-16T09:04:08;18.70;99.90
46117;DHT22;32591;48.102;11.772;2022-10-16T09:06:53;18.90;99.90
46117;DHT22;32591;48.102;11.772;2022-10-16T09:09:35;19.10;99.90
46117;DHT22;32591;48.102;11.772;2022-10-16T09:12:15;19.20;99.90
46117;DHT22;32591;48.102;11.772;2022-10-16T09:15:02;19.30;99.90
46117;DHT22;32591;48.102;11.772;2022-10-16T09:17:42;19.50;99.90
46117;DHT22;32591;48.102;11.772;2022-10-16T09:20:28;19.60;99.90
46117;DHT22;32591;48.102;11.772;2022-10-16T09:23:10;19.70;99.90
46117;DHT22;32591;48.102;11.772;2022-10-16T09:25:44;19.90;99.90
46117;DHT22;32591;48.102;11.772;2022-10-16T09:28:14;20.00;99.90
46117;DHT22;32591;48.102;11.772;2022-10-16T09:30:44;20.10;99.90
46117;DHT22;32591;48.102;11.772;2022-10-16T09:33:14;20.10;99.90
46117;DHT22;32591;48.102;11.772;2022-10-16T09:35:44;20.30;99.90
46117;DHT22;32591;48.102;11.772;2022-10-16T09:38:21;20.40;99.90
46117;DHT22;32591;48.102;11.772;2022-10-16T09:40:50;20.60;99.90
46117;DHT22;32591;48.102;11.772;2022-10-16T09:43:23;20.70;99.90
46117;DHT22;32591;48.102;11.772;2022-10-16T09:45:56;20.80;99.90
46117;DHT22;32591;48.102;11.772;2022-10-16T09:48:25;20.90;99.90
46117;DHT22;32591;48.102;11.772;2022-10-16T09:50:59;21.00;99.90
46117;DHT22;32591;48.102;11.772;2022-10-16T09:53:41;21.10;99.90
46117;DHT22;32591;48.102;11.772;2022-10-16T09:56:11;21.20;99.90
46117;DHT22;32591;48.102;11.772;2022-10-16T09:58:43;21.20;99.90
46117;DHT22;32591;48.102;11.772;2022-10-16T10:01:14;21.30;99.90
46117;DHT22;32591;48.102;11.772;2022-10-16T10:03:42;21.40;99.90
46117;DHT22;32591;48.102;11.772;2022-10-16T10:06:21;21.40;99.90
46117;DHT22;32591;48.102;11.772;2022-10-16T10:08:55;21.60;99.90
46117;DHT22;32591;48.102;11.772;2022-10-16T10:11:41;21.70;99.90
46117;DHT22;32591;48.102;11.772;2022-10-16T10:14:20;21.80;99.90
46117;DHT22;32591;48.102;11.772;2022-10-16T10:16:51;21.90;99.90
46117;DHT22;32591;48.102;11.772;2022-10-16T10:19:20;22.10;98.30
46117;DHT22;32591;48.102;11.772;2022-10-16T10:21:49;22.20;98.00
46117;DHT22;32591;48.102;11.772;2022-10-16T10:24:18;22.20;97.70
46117;DHT22;32591;48.102;11.772;2022-10-16T10:27:00;22.40;99.10
46117;DHT22;32591;48.102;11.772;2022-10-16T10:29:46;22.50;98.30
46117;DHT22;32591;48.102;11.772;2022-10-16T10:32:25;22.60;97.70
46117;DHT22;32591;48.102;11.772;2022-10-16T10:35:06;22.70;97.60
46117;DHT22;32591;48.102;11.772;2022-10-16T10:37:55;22.80;97.50
46117;DHT22;32591;48.102;11.772;2022-10-16T10:40:39;22.90;96.40
46117;DHT22;32591;48.102;11.772;2022-10-16T10:43:20;22.90;95.40
46117;DHT22;32591;48.102;11.772;2022-10-16T10:45:59;23.00;93.70
46117;DHT22;32591;48.102;11.772;2022-10-16T10:48:49;23.00;92.70
46117;DHT22;32591;48.102;11.772;2022-10-16T10:51:25;22.90;91.10
46117;DHT22;32591;48.102;11.772;2022-10-16T10:54:03;22.90;92.20
46117;DHT22;32591;48.102;11.772;2022-10-16T10:56:43;23.00;92.40
46117;DHT22;32591;48.102;11.772;2022-10-16T10:59:42;23.20;91.10
46117;DHT22;32591;48.102;11.772;2022-10-16T11:02:23;23.20;88.90
46117;DHT22;32591;48.102;11.772;2022-10-16T11:08:11;23.40;88.60
46117;DHT22;32591;48.102;11.772;2022-10-16T11:10:51;23.50;82.30
46117;DHT22;32591;48.102;11.772;2022-10-16T11:13:34;23.50;78.90
46117;DHT22;32591;48.102;11.772;2022-10-16T11:16:10;23.60;82.00
46117;DHT22;32591;48.102;11.772;2022-10-16T11:18:47;23.60;80.00
46117;DHT22;32591;48.102;11.772;2022-10-16T11:21:19;23.70;80.10
46117;DHT22;32591;48.102;11.772;2022-10-16T11:23:53;23.70;79.50
46117;DHT22;32591;48.102;11.772;2022-10-16T11:26:33;23.70;79.70
46117;DHT22;32591;48.102;11.772;2022-10-16T11:29:03;23.70;76.60
46117;DHT22;32591;48.102;11.772;2022-10-16T11:31:36;23.60;77.90
46117;DHT22;32591;48.102;11.772;2022-10-16T11:34:09;23.60;77.70
46117;DHT22;32591;48.102;11.772;2022-10-16T11:36:48;23.70;77.80
46117;DHT22;32591;48.102;11.772;2022-10-16T11:39:20;23.80;78.40
46117;DHT22;32591;48.102;11.772;2022-10-16T11:41:51;24.00;77.50
46117;DHT22;32591;48.102;11.772;2022-10-16T11:44:38;24.00;75.80
46117;DHT22;32591;48.102;11.772;2022-10-16T11:47:19;24.00;73.40
46117;DHT22;32591;48.102;11.772;2022-10-16T11:49:55;24.00;72.60
46117;DHT22;32591;48.102;11.772;2022-10-16T11:52:33;24.00;72.20
46117;DHT22;32591;48.102;11.772;2022-10-16T11:55:08;24.00;70.40
46117;DHT22;32591;48.102;11.772;2022-10-16T11:57:44;23.90;69.40
46117;DHT22;32591;48.102;11.772;2022-10-16T12:00:21;24.00;71.30
46117;DHT22;32591;48.102;11.772;2022-10-16T12:02:55;24.00;69.80
46117;DHT22;32591;48.102;11.772;2022-10-16T12:05:32;24.00;69.40
46117;DHT22;32591;48.102;11.772;2022-10-16T12:08:09;24.10;69.30
46117;DHT22;32591;48.102;11.772;2022-10-16T12:10:38;24.10;69.20
46117;DHT22;32591;48.102;11.772;2022-10-16T12:13:31;24.10;68.00
46117;DHT22;32591;48.102;11.772;2022-10-16T12:16:07;24.00;69.80
46117;DHT22;32591;48.102;11.772;2022-10-16T12:18:48;24.10;69.70
46117;DHT22;32591;48.102;11.772;2022-10-16T12:21:17;24.10;68.50
46117;DHT22;32591;48.102;11.772;2022-10-16T12:23:51;24.20;67.10
46117;DHT22;32591;48.102;11.772;2022-10-16T12:26:27;24.30;68.50
46117;DHT22;32591;48.102;11.772;2022-10-16T12:29:08;24.50;69.20
46117;DHT22;32591;48.102;11.772;2022-10-16T12:31:44;24.50;67.00
46117;DHT22;32591;48.102;11.772;2022-10-16T12:34:20;24.40;65.90
46117;DHT22;32591;48.102;11.772;2022-10-16T12:36:49;24.40;67.60
46117;DHT22;32591;48.102;11.772;2022-10-16T12:39:22;24.40;66.30
46117;DHT22;32591;48.102;11.772;2022-10-16T12:42:02;24.40;66.30
46117;DHT22;32591;48.102;11.772;2022-10-16T12:44:33;24.40;67.30
46117;DHT22;32591;48.102;11.772;2022-10-16T12:47:00;24.50;66.40
46117;DHT22;32591;48.102;11.772;2022-10-16T12:49:35;24.60;66.80
46117;DHT22;32591;48.102;11.772;2022-10-16T12:52:04;24.70;67.30
46117;DHT22;32591;48.102;11.772;2022-10-16T12:54:36;24.90;65.40
46117;DHT22;32591;48.102;11.772;2022-10-16T12:57:19;24.90;66.20
46117;DHT22;32591;48.102;11.772;2022-10-16T12:59:58;24.90;65.40
46117;DHT22;32591;48.102;11.772;2022-10-16T13:02:49;25.00;64.30
46117;DHT22;32591;48.102;11.772;2022-10-16T13:05:35;25.00;64.20
46117;DHT22;32591;48.102;11.772;2022-10-16T13:08:22;25.00;64.20
46117;DHT22;32591;48.102;11.772;2022-10-16T13:11:03;25.00;64.50
46117;DHT22;32591;48.102;11.772;2022-10-16T13:14:00;24.90;63.40
46117;DHT22;32591;48.102;11.772;2022-10-16T13:16:50;24.90;62.70
46117;DHT22;32591;48.102;11.772;2022-10-16T13:19:28;24.90;63.90
46117;DHT22;32591;48.102;11.772;2022-10-16T13:22:03;25.00;63.80
46117;DHT22;32591;48.102;11.772;2022-10-16T13:24:58;25.20;64.60
46117;DHT22;32591;48.102;11.772;2022-10-16T13:27:41;25.30;63.90
46117;DHT22;32591;48.102;11.772;2022-10-16T13:30:17;25.30;64.00
46117;DHT22;32591;48.102;11.772;2022-10-16T13:32:46;25.40;64.30
46117;DHT22;32591;48.102;11.772;2022-10-16T13:35:20;25.50;64.50
46117;DHT22;32591;48.102;11.772;2022-10-16T13:37:48;25.40;62.40
46117;DHT22;32591;48.102;11.772;2022-10-16T13:40:21;25.50;63.30
46117;DHT22;32591;48.102;11.772;2022-10-16T13:42:51;25.60;61.50
46117;DHT22;32591;48.102;11.772;2022-10-16T13:45:20;25.80;63.80
46117;DHT22;32591;48.102;11.772;2022-10-16T13:47:48;25.90;61.10
46117;DHT22;32591;48.102;11.772;2022-10-16T13:50:17;25.90;62.40
46117;DHT22;32591;48.102;11.772;2022-10-16T13:52:45;25.70;60.00
46117;DHT22;32591;48.102;11.772;2022-10-16T13:55:13;25.70;58.80
46117;DHT22;32591;48.102;11.772;2022-10-16T13:57:41;25.70;59.60
46117;DHT22;32591;48.102;11.772;2022-10-16T14:00:21;25.70;59.30
46117;DHT22;32591;48.102;11.772;2022-10-16T14:02:52;25.80;61.30
46117;DHT22;32591;48.102;11.772;2022-10-16T14:05:23;25.80;59.80
46117;DHT22;32591;48.102;11.772;2022-10-16T14:07:51;25.70;60.40
46117;DHT22;32591;48.102;11.772;2022-10-16T14:10:22;25.70;60.00
46117;DHT22;32591;48.102;11.772;2022-10-16T14:12:58;25.80;60.10
46117;DHT22;32591;48.102;11.772;2022-10-16T14:15:29;25.90;61.20
46117;DHT22;32591;48.102;11.772;2022-10-16T14:17:58;25.80;61.10
46117;DHT22;32591;48.102;11.772;2022-10-16T14:20:28;25.90;59.50
46117;DHT22;32591;48.102;11.772;2022-10-16T14:23:01;26.00;61.70
46117;DHT22;32591;48.102;11.772;2022-10-16T14:25:31;26.10;61.10
46117;DHT22;32591;48.102;11.772;2022-10-16T14:28:01;26.20;60.50
46117;DHT22;32591;48.102;11.772;2022-10-16T14:30:33;26.20;61.30
46117;DHT22;32591;48.102;11.772;2022-10-16T14:33:03;26.20;59.60
46117;DHT22;32591;48.102;11.772;2022-10-16T14:35:33;26.20;60.00
46117;DHT22;32591;48.102;11.772;2022-10-16T14:38:02;26.30;63.20
46117;DHT22;32591;48.102;11.772;2022-10-16T14:40:32;26.30;62.20
46117;DHT22;32591;48.102;11.772;2022-10-16T14:43:00;26.30;62.40
46117;DHT22;32591;48.102;11.772;2022-10-16T14:45:31;26.30;59.60
46117;DHT22;32591;48.102;11.772;2022-10-16T14:48:02;26.30;59.90
46117;DHT22;32591;48.102;11.772;2022-10-16T14:50:32;26.30;60.30
46117;DHT22;32591;48.102;11.772;2022-10-16T14:52:59;26.30;59.80
46117;DHT22;32591;48.102;11.772;2022-10-16T14:55:26;26.30;60.60
46117;DHT22;32591;48.102;11.772;2022-10-16T14:57:53;26.30;60.70
46117;DHT22;32591;48.102;11.772;2022-10-16T15:00:22;26.10;61.30
46117;DHT22;32591;48.102;11.772;2022-10-16T15:02:51;26.00;61.90
46117;DHT22;32591;48.102;11.772;2022-10-16T15:05:20;25.80;62.50
46117;DHT22;32591;48.102;11.772;2022-10-16T15:07:49;25.70;64.10
46117;DHT22;32591;48.102;11.772;2022-10-16T15:10:18;25.50;64.70
46117;DHT22;32591;48.102;11.772;2022-10-16T15:12:45;25.30;64.80
46117;DHT22;32591;48.102;11.772;2022-10-16T15:15:25;25.30;66.00
46117;DHT22;32591;48.102;11.772;2022-10-16T15:17:57;25.20;67.20
46117;DHT22;32591;48.102;11.772;2022-10-16T15:20:26;25.00;67.00
46117;DHT22;32591;48.102;11.772;2022-10-16T15:22:55;24.90;68.70
46117;DHT22;32591;48.102;11.772;2022-10-16T15:25:32;24.80;69.50
46117;DHT22;32591;48.102;11.772;2022-10-16T15:28:05;24.70;70.10
46117;DHT22;32591;48.102;11.772;2022-10-16T15:30:33;24.60;70.80
46117;DHT22;32591;48.102;11.772;2022-10-16T15:33:03;24.50;71.30
46117;DHT22;32591;48.102;11.772;2022-10-16T15:35:30;24.40;72.30
46117;DHT22;32591;48.102;11.772;2022-10-16T15:37:57;24.30;73.30
46117;DHT22;32591;48.102;11.772;2022-10-16T15:40:24;24.20;73.70
46117;DHT22;32591;48.102;11.772;2022-10-16T15:42:51;24.10;74.00
46117;DHT22;32591;48.102;11.772;2022-10-16T15:45:18;24.00;74.50
46117;DHT22;32591;48.102;11.772;2022-10-16T15:47:45;23.90;75.60